sensor_id;sensor_type;location;lat;lon;timestamp;temperature;humidity
74224;SHT31;62585;49.706;18.216;2023-05-18T00:02:06;8.40;97.62
74224;SHT31;62585;49.706;18.216;2023-05-18T00:04:33;8.41;98.15
74224;SHT31;62585;49.706;18.216;2023-05-18T00:07:02;8.41;97.97
74224;SHT31;62585;49.706;18.216;2023-05-18T00:09:36;8.41;98.13
74224;SHT31;62585;49.706;18.216;2023-05-18T00:12:03;8.30;98.00
74224;SHT31;62585;49.706;18.216;2023-05-18T00:14:30;8.30;98.35
74224;SHT31;62585;49.706;18.216;2023-05-18T00:16:56;8.29;97.85
74224;SHT31;62585;49.706;18.216;2023-05-18T00:19:22;8.26;98.18
74224;SHT31;62585;49.706;18.216;2023-05-18T00:21:50;8.26;97.84
74224;SHT31;62585;49.706;18.216;2023-05-18T00:24:18;8.33;98.24
74224;SHT31;62585;49.706;18.216;2023-05-18T00:26:44;8.33;98.15
74224;SHT31;62585;49.706;18.216;2023-05-18T00:29:11;8.26;97.42
74224;SHT31;62585;49.706;18.216;2023-05-18T00:31:37;8.32;97.03
74224;SHT31;62585;49.706;18.216;2023-05-18T00:34:04;8.36;97.57
74224;SHT31;62585;49.706;18.216;2023-05-18T00:36:31;8.33;97.85
74224;SHT31;62585;49.706;18.216;2023-05-18T00:38:57;8.34;97.69
74224;SHT31;62585;49.706;18.216;2023-05-18T00:41:24;8.33;97.53
74224;SHT31;62585;49.706;18.216;2023-05-18T00:43:54;8.23;97.58
74224;SHT31;62585;49.706;18.216;2023-05-18T00:46:21;8.25;97.34
74224;SHT31;62585;49.706;18.216;2023-05-18T00:48:48;8.25;97.47
74224;SHT31;62585;49.706;18.216;2023-05-18T00:51:15;8.20;97.01
74224;SHT31;62585;49.706;18.216;2023-05-18T00:53:42;8.25;97.64
74224;SHT31;62585;49.706;18.216;2023-05-18T00:56:09;8.28;97.28
74224;SHT31;62585;49.706;18.216;2023-05-18T00:58:36;8.26;97.25
74224;SHT31;62585;49.706;18.216;2023-05-18T01:01:02;8.29;97.63
74224;SHT31;62585;49.706;18.216;2023-05-18T01:03:32;8.29;96.66
74224;SHT31;62585;49.706;18.216;2023-05-18T01:05:58;8.33;96.40
74224;SHT31;62585;49.706;18.216;2023-05-18T01:08:25;8.25;96.81
74224;SHT31;62585;49.706;18.216;2023-05-18T01:10:58;8.22;97.12
74224;SHT31;62585;49.706;18.216;2023-05-18T01:13:41;8.26;96.89
74224;SHT31;62585;49.706;18.216;2023-05-18T01:16:15;8.26;97.21
74224;SHT31;62585;49.706;18.216;2023-05-18T01:18:48;8.29;96.86
74224;SHT31;62585;49.706;18.216;2023-05-18T01:21:55;8.29;96.69
74224;SHT31;62585;49.706;18.216;2023-05-18T01:26:45;8.33;96.65
74224;SHT31;62585;49.706;18.216;2023-05-18T01:29:14;8.32;96.45
74224;SHT31;62585;49.706;18.216;2023-05-18T01:31:40;8.23;96.28
74224;SHT31;62585;49.706;18.216;2023-05-18T01:34:06;8.28;96.05
74224;SHT31;62585;49.706;18.216;2023-05-18T01:36:31;8.30;95.82
74224;SHT31;62585;49.706;18.216;2023-05-18T01:38:57;8.29;95.75
74224;SHT31;62585;49.706;18.216;2023-05-18T01:41:31;8.30;95.69
74224;SHT31;62585;49.706;18.216;2023-05-18T01:44:18;8.28;95.80
74224;SHT31;62585;49.706;18.216;2023-05-18T01:49:41;8.25;95.38
74224;SHT31;62585;49.706;18.216;2023-05-18T01:52:38;8.25;95.77
74224;SHT31;62585;49.706;18.216;2023-05-18T01:55:07;8.22;96.13
74224;SHT31;62585;49.706;18.216;2023-05-18T01:57:35;8.20;95.89
74224;SHT31;62585;49.706;18.216;2023-05-18T02:00:02;8.23;96.19
74224;SHT31;62585;49.706;18.216;2023-05-18T02:02:32;8.19;96.11
74224;SHT31;62585;49.706;18.216;2023-05-18T02:04:58;8.23;96.39
74224;SHT31;62585;49.706;18.216;2023-05-18T02:07:23;8.19;95.69
74224;SHT31;62585;49.706;18.216;2023-05-18T02:09:49;8.07;96.70
74224;SHT31;62585;49.706;18.216;2023-05-18T02:12:15;8.12;96.74
74224;SHT31;62585;49.706;18.216;2023-05-18T02:14:41;8.13;95.90
74224;SHT31;62585;49.706;18.216;2023-05-18T02:17:07;8.13;96.42
74224;SHT31;62585;49.706;18.216;2023-05-18T02:19:33;8.19;96.74
74224;SHT31;62585;49.706;18.216;2023-05-18T02:22:04;8.16;96.18
74224;SHT31;62585;49.706;18.216;2023-05-18T02:24:34;8.20;95.51
74224;SHT31;62585;49.706;18.216;2023-05-18T02:27:00;8.17;95.79
74224;SHT31;62585;49.706;18.216;2023-05-18T02:29:26;8.20;95.74
74224;SHT31;62585;49.706;18.216;2023-05-18T02:31:51;8.23;96.04
74224;SHT31;62585;49.706;18.216;2023-05-18T02:34:17;8.17;95.83
74224;SHT31;62585;49.706;18.216;2023-05-18T02:36:44;8.17;95.85
74224;SHT31;62585;49.706;18.216;2023-05-18T02:39:10;8.20;95.94
74224;SHT31;62585;49.706;18.216;2023-05-18T02:41:37;8.10;95.94
74224;SHT31;62585;49.706;18.216;2023-05-18T02:44:03;8.07;95.81
74224;SHT31;62585;49.706;18.216;2023-05-18T02:46:29;8.06;96.18
74224;SHT31;62585;49.706;18.216;2023-05-18T02:48:56;8.12;96.47
74224;SHT31;62585;49.706;18.216;2023-05-18T02:51:22;8.07;96.31
74224;SHT31;62585;49.706;18.216;2023-05-18T02:53:48;8.06;96.79
74224;SHT31;62585;49.706;18.216;2023-05-18T02:56:15;8.03;95.96
74224;SHT31;62585;49.706;18.216;2023-05-18T02:58:42;8.05;96.29
74224;SHT31;62585;49.706;18.216;2023-05-18T03:01:09;8.10;95.84
74224;SHT31;62585;49.706;18.216;2023-05-18T03:03:37;8.06;95.99
74224;SHT31;62585;49.706;18.216;2023-05-18T03:06:06;8.05;96.26
74224;SHT31;62585;49.706;18.216;2023-05-18T03:08:32;8.02;96.22
74224;SHT31;62585;49.706;18.216;2023-05-18T03:10:58;8.06;96.12
74224;SHT31;62585;49.706;18.216;2023-05-18T03:13:24;8.05;96.43
74224;SHT31;62585;49.706;18.216;2023-05-18T03:15:50;8.03;96.25
74224;SHT31;62585;49.706;18.216;2023-05-18T03:18:17;8.06;96.35
74224;SHT31;62585;49.706;18.216;2023-05-18T03:20:44;8.01;95.96
74224;SHT31;62585;49.706;18.216;2023-05-18T03:23:09;8.02;96.41
74224;SHT31;62585;49.706;18.216;2023-05-18T03:25:35;8.02;96.15
74224;SHT31;62585;49.706;18.216;2023-05-18T03:28:04;8.07;95.88
74224;SHT31;62585;49.706;18.216;2023-05-18T03:30:33;8.05;95.74
74224;SHT31;62585;49.706;18.216;2023-05-18T03:33:02;7.98;95.63
74224;SHT31;62585;49.706;18.216;2023-05-18T03:35:28;7.98;96.41
74224;SHT31;62585;49.706;18.216;2023-05-18T03:37:54;7.98;96.39
74224;SHT31;62585;49.706;18.216;2023-05-18T03:40:20;7.96;96.20
74224;SHT31;62585;49.706;18.216;2023-05-18T03:42:46;7.99;96.39
74224;SHT31;62585;49.706;18.216;2023-05-18T03:45:12;8.02;96.30
74224;SHT31;62585;49.706;18.216;2023-05-18T03:47:39;7.99;96.38
74224;SHT31;62585;49.706;18.216;2023-05-18T03:50:05;7.93;96.25
74224;SHT31;62585;49.706;18.216;2023-05-18T03:52:32;7.89;96.43
74224;SHT31;62585;49.706;18.216;2023-05-18T03:54:59;7.88;96.38
74224;SHT31;62585;49.706;18.216;2023-05-18T03:57:27;7.91;96.27
74224;SHT31;62585;49.706;18.216;2023-05-18T03:59:53;7.86;96.79
74224;SHT31;62585;49.706;18.216;2023-05-18T04:02:19;7.88;96.79
74224;SHT31;62585;49.706;18.216;2023-05-18T04:04:45;7.95;96.96
74224;SHT31;62585;49.706;18.216;2023-05-18T04:07:12;7.91;96.48
74224;SHT31;62585;49.706;18.216;2023-05-18T04:09:41;7.79;97.10
74224;SHT31;62585;49.706;18.216;2023-05-18T04:12:08;7.82;97.31
74224;SHT31;62585;49.706;18.216;2023-05-18T04:14:34;7.84;97.48
74224;SHT31;62585;49.706;18.216;2023-05-18T04:17:00;7.86;97.35
74224;SHT31;62585;49.706;18.216;2023-05-18T04:19:36;7.81;97.46
74224;SHT31;62585;49.706;18.216;2023-05-18T04:22:02;7.81;97.54
74224;SHT31;62585;49.706;18.216;2023-05-18T04:24:32;7.86;97.62
74224;SHT31;62585;49.706;18.216;2023-05-18T04:26:59;7.88;97.87
74224;SHT31;62585;49.706;18.216;2023-05-18T04:29:29;7.89;97.92
74224;SHT31;62585;49.706;18.216;2023-05-18T04:31:55;7.82;98.05
74224;SHT31;62585;49.706;18.216;2023-05-18T04:34:28;7.81;97.96
74224;SHT31;62585;49.706;18.216;2023-05-18T04:36:54;7.75;97.82
74224;SHT31;62585;49.706;18.216;2023-05-18T04:39:21;7.77;98.08
74224;SHT31;62585;49.706;18.216;2023-05-18T04:41:48;7.82;98.31
74224;SHT31;62585;49.706;18.216;2023-05-18T04:44:15;7.84;97.99
74224;SHT31;62585;49.706;18.216;2023-05-18T04:46:43;7.79;97.92
74224;SHT31;62585;49.706;18.216;2023-05-18T04:49:14;7.86;97.76
74224;SHT31;62585;49.706;18.216;2023-05-18T04:51:41;7.81;97.76
74224;SHT31;62585;49.706;18.216;2023-05-18T04:54:07;7.84;98.38
74224;SHT31;62585;49.706;18.216;2023-05-18T04:56:34;7.78;98.24
74224;SHT31;62585;49.706;18.216;2023-05-18T04:58:59;7.79;98.02
74224;SHT31;62585;49.706;18.216;2023-05-18T05:01:26;7.86;98.14
74224;SHT31;62585;49.706;18.216;2023-05-18T05:03:52;7.84;98.30
74224;SHT31;62585;49.706;18.216;2023-05-18T05:06:18;7.85;97.98
74224;SHT31;62585;49.706;18.216;2023-05-18T05:08:44;7.81;97.65
74224;SHT31;62585;49.706;18.216;2023-05-18T05:11:09;7.81;98.12
74224;SHT31;62585;49.706;18.216;2023-05-18T05:13:35;7.84;98.30
74224;SHT31;62585;49.706;18.216;2023-05-18T05:16:01;7.84;98.01
74224;SHT31;62585;49.706;18.216;2023-05-18T05:18:27;7.81;97.78
74224;SHT31;62585;49.706;18.216;2023-05-18T05:20:54;7.85;97.70
74224;SHT31;62585;49.706;18.216;2023-05-18T05:23:19;7.92;97.46
74224;SHT31;62585;49.706;18.216;2023-05-18T05:25:45;7.89;96.90
74224;SHT31;62585;49.706;18.216;2023-05-18T05:28:11;7.89;97.28
74224;SHT31;62585;49.706;18.216;2023-05-18T05:30:37;7.82;97.21
74224;SHT31;62585;49.706;18.216;2023-05-18T05:33:02;7.86;96.92
74224;SHT31;62585;49.706;18.216;2023-05-18T05:35:28;7.92;96.82
74224;SHT31;62585;49.706;18.216;2023-05-18T05:37:54;7.85;96.82
74224;SHT31;62585;49.706;18.216;2023-05-18T05:40:20;7.88;96.60
74224;SHT31;62585;49.706;18.216;2023-05-18T05:42:46;7.81;96.67
74224;SHT31;62585;49.706;18.216;2023-05-18T05:45:12;7.86;96.82
74224;SHT31;62585;49.706;18.216;2023-05-18T05:47:38;7.89;96.94
74224;SHT31;62585;49.706;18.216;2023-05-18T05:50:04;7.92;96.95
74224;SHT31;62585;49.706;18.216;2023-05-18T05:52:30;7.86;96.74
74224;SHT31;62585;49.706;18.216;2023-05-18T05:54:56;7.82;96.70
74224;SHT31;62585;49.706;18.216;2023-05-18T05:57:22;7.91;96.22
74224;SHT31;62585;49.706;18.216;2023-05-18T05:59:47;7.96;95.93
74224;SHT31;62585;49.706;18.216;2023-05-18T06:02:13;7.96;95.54
74224;SHT31;62585;49.706;18.216;2023-05-18T06:04:39;8.02;95.84
74224;SHT31;62585;49.706;18.216;2023-05-18T06:07:05;7.93;96.08
74224;SHT31;62585;49.706;18.216;2023-05-18T06:09:31;7.96;96.40
74224;SHT31;62585;49.706;18.216;2023-05-18T06:11:57;8.01;95.86
74224;SHT31;62585;49.706;18.216;2023-05-18T06:14:23;8.01;95.54
74224;SHT31;62585;49.706;18.216;2023-05-18T06:16:49;8.01;95.72
74224;SHT31;62585;49.706;18.216;2023-05-18T06:19:14;8.09;96.28
74224;SHT31;62585;49.706;18.216;2023-05-18T06:21:40;8.16;95.84
74224;SHT31;62585;49.706;18.216;2023-05-18T06:24:06;8.19;95.77
74224;SHT31;62585;49.706;18.216;2023-05-18T06:26:32;8.20;95.97
74224;SHT31;62585;49.706;18.216;2023-05-18T06:28:58;8.22;96.04
74224;SHT31;62585;49.706;18.216;2023-05-18T06:31:23;8.19;95.91
74224;SHT31;62585;49.706;18.216;2023-05-18T06:33:49;8.17;95.48
74224;SHT31;62585;49.706;18.216;2023-05-18T06:36:16;8.22;95.39
74224;SHT31;62585;49.706;18.216;2023-05-18T06:38:41;8.17;95.30
74224;SHT31;62585;49.706;18.216;2023-05-18T06:41:08;8.16;95.57
74224;SHT31;62585;49.706;18.216;2023-05-18T06:43:33;8.26;95.87
74224;SHT31;62585;49.706;18.216;2023-05-18T06:45:59;8.28;94.92
74224;SHT31;62585;49.706;18.216;2023-05-18T06:48:26;8.33;95.70
74224;SHT31;62585;49.706;18.216;2023-05-18T06:50:53;8.37;95.27
74224;SHT31;62585;49.706;18.216;2023-05-18T06:53:19;8.34;94.83
74224;SHT31;62585;49.706;18.216;2023-05-18T06:55:45;8.37;95.44
74224;SHT31;62585;49.706;18.216;2023-05-18T06:58:12;8.40;94.95
74224;SHT31;62585;49.706;18.216;2023-05-18T07:00:38;8.43;95.52
74224;SHT31;62585;49.706;18.216;2023-05-18T07:03:04;8.47;94.79
74224;SHT31;62585;49.706;18.216;2023-05-18T07:05:30;8.51;94.71
74224;SHT31;62585;49.706;18.216;2023-05-18T07:07:56;8.59;94.76
74224;SHT31;62585;49.706;18.216;2023-05-18T07:10:22;8.57;94.34
74224;SHT31;62585;49.706;18.216;2023-05-18T07:12:48;8.81;94.67
74224;SHT31;62585;49.706;18.216;2023-05-18T07:15:14;8.93;94.61
74224;SHT31;62585;49.706;18.216;2023-05-18T07:17:40;9.04;95.09
74224;SHT31;62585;49.706;18.216;2023-05-18T07:20:07;9.18;93.72
74224;SHT31;62585;49.706;18.216;2023-05-18T07:22:33;9.27;94.13
74224;SHT31;62585;49.706;18.216;2023-05-18T07:24:59;9.32;93.23
74224;SHT31;62585;49.706;18.216;2023-05-18T07:27:26;9.51;93.55
74224;SHT31;62585;49.706;18.216;2023-05-18T07:29:52;9.70;92.96
74224;SHT31;62585;49.706;18.216;2023-05-18T07:32:18;9.75;91.86
74224;SHT31;62585;49.706;18.216;2023-05-18T07:34:44;9.91;91.22
74224;SHT31;62585;49.706;18.216;2023-05-18T07:37:11;10.09;91.50
74224;SHT31;62585;49.706;18.216;2023-05-18T07:39:37;10.05;89.53
74224;SHT31;62585;49.706;18.216;2023-05-18T07:42:04;10.29;90.88
74224;SHT31;62585;49.706;18.216;2023-05-18T07:44:29;10.52;89.19
74224;SHT31;62585;49.706;18.216;2023-05-18T07:46:55;10.59;88.46
74224;SHT31;62585;49.706;18.216;2023-05-18T07:49:21;10.49;87.04
74224;SHT31;62585;49.706;18.216;2023-05-18T07:51:50;10.45;85.84
74224;SHT31;62585;49.706;18.216;2023-05-18T07:54:17;10.50;85.14
74224;SHT31;62585;49.706;18.216;2023-05-18T07:56:44;10.50;86.46
74224;SHT31;62585;49.706;18.216;2023-05-18T07:59:11;10.57;85.36
74224;SHT31;62585;49.706;18.216;2023-05-18T08:01:37;10.59;84.89
74224;SHT31;62585;49.706;18.216;2023-05-18T08:04:03;10.69;84.37
74224;SHT31;62585;49.706;18.216;2023-05-18T08:06:29;10.73;85.34
74224;SHT31;62585;49.706;18.216;2023-05-18T08:08:57;10.83;83.45
74224;SHT31;62585;49.706;18.216;2023-05-18T08:11:22;10.80;81.51
74224;SHT31;62585;49.706;18.216;2023-05-18T08:13:49;10.77;81.66
74224;SHT31;62585;49.706;18.216;2023-05-18T08:16:14;10.96;81.03
74224;SHT31;62585;49.706;18.216;2023-05-18T08:18:40;11.10;78.70
74224;SHT31;62585;49.706;18.216;2023-05-18T08:21:07;11.54;81.06
74224;SHT31;62585;49.706;18.216;2023-05-18T08:23:37;11.73;80.45
74224;SHT31;62585;49.706;18.216;2023-05-18T08:26:03;12.13;80.69
74224;SHT31;62585;49.706;18.216;2023-05-18T08:28:29;12.40;80.14
74224;SHT31;62585;49.706;18.216;2023-05-18T08:30:55;12.45;76.79
74224;SHT31;62585;49.706;18.216;2023-05-18T08:33:22;12.40;74.95
74224;SHT31;62585;49.706;18.216;2023-05-18T08:35:48;12.66;75.94
74224;SHT31;62585;49.706;18.216;2023-05-18T08:38:14;12.62;74.72
74224;SHT31;62585;49.706;18.216;2023-05-18T08:43:37;12.89;72.97
74224;SHT31;62585;49.706;18.216;2023-05-18T08:46:06;12.85;74.14
74224;SHT31;62585;49.706;18.216;2023-05-18T08:48:36;12.52;73.97
74224;SHT31;62585;49.706;18.216;2023-05-18T08:51:03;12.65;74.07
74224;SHT31;62585;49.706;18.216;2023-05-18T08:53:31;12.61;73.27
74224;SHT31;62585;49.706;18.216;2023-05-18T08:55:58;12.44;74.15
74224;SHT31;62585;49.706;18.216;2023-05-18T08:58:46;12.44;73.39
74224;SHT31;62585;49.706;18.216;2023-05-18T09:01:12;12.42;75.30
74224;SHT31;62585;49.706;18.216;2023-05-18T09:03:39;12.69;77.21
74224;SHT31;62585;49.706;18.216;2023-05-18T09:06:06;12.49;74.18
74224;SHT31;62585;49.706;18.216;2023-05-18T09:08:32;12.75;75.78
74224;SHT31;62585;49.706;18.216;2023-05-18T09:11:00;12.80;74.68
74224;SHT31;62585;49.706;18.216;2023-05-18T09:13:28;12.61;74.16
74224;SHT31;62585;49.706;18.216;2023-05-18T09:15:54;12.28;74.14
74224;SHT31;62585;49.706;18.216;2023-05-18T09:18:20;12.01;75.19
74224;SHT31;62585;49.706;18.216;2023-05-18T09:20:45;11.97;75.69
74224;SHT31;62585;49.706;18.216;2023-05-18T09:23:14;12.16;77.34
74224;SHT31;62585;49.706;18.216;2023-05-18T09:25:45;12.23;74.14
74224;SHT31;62585;49.706;18.216;2023-05-18T09:28:12;12.30;76.14
74224;SHT31;62585;49.706;18.216;2023-05-18T09:30:42;12.41;73.66
74224;SHT31;62585;49.706;18.216;2023-05-18T09:33:19;12.61;75.48
74224;SHT31;62585;49.706;18.216;2023-05-18T09:35:49;12.41;73.90
74224;SHT31;62585;49.706;18.216;2023-05-18T09:38:17;12.51;75.06
74224;SHT31;62585;49.706;18.216;2023-05-18T09:40:47;12.76;73.11
74224;SHT31;62585;49.706;18.216;2023-05-18T09:43:15;12.86;73.28
74224;SHT31;62585;49.706;18.216;2023-05-18T09:45:42;12.69;74.25
74224;SHT31;62585;49.706;18.216;2023-05-18T09:48:09;12.37;71.98
74224;SHT31;62585;49.706;18.216;2023-05-18T09:50:36;12.28;74.11
74224;SHT31;62585;49.706;18.216;2023-05-18T09:53:05;12.25;73.59
74224;SHT31;62585;49.706;18.216;2023-05-18T09:55:31;12.40;72.42
74224;SHT31;62585;49.706;18.216;2023-05-18T09:57:57;12.20;72.70
74224;SHT31;62585;49.706;18.216;2023-05-18T10:00:22;12.44;73.49
74224;SHT31;62585;49.706;18.216;2023-05-18T10:02:50;12.59;75.32
74224;SHT31;62585;49.706;18.216;2023-05-18T10:05:24;12.38;75.88
74224;SHT31;62585;49.706;18.216;2023-05-18T10:07:58;12.48;75.39
74224;SHT31;62585;49.706;18.216;2023-05-18T10:10:27;12.59;76.73
74224;SHT31;62585;49.706;18.216;2023-05-18T10:12:56;12.92;75.53
74224;SHT31;62585;49.706;18.216;2023-05-18T10:15:23;12.52;74.10
74224;SHT31;62585;49.706;18.216;2023-05-18T10:17:50;12.38;76.11
74224;SHT31;62585;49.706;18.216;2023-05-18T10:20:19;12.28;74.28
74224;SHT31;62585;49.706;18.216;2023-05-18T10:22:47;12.17;75.68
74224;SHT31;62585;49.706;18.216;2023-05-18T10:25:18;12.34;75.92
74224;SHT31;62585;49.706;18.216;2023-05-18T10:27:47;12.24;73.08
74224;SHT31;62585;49.706;18.216;2023-05-18T10:30:14;12.17;74.03
74224;SHT31;62585;49.706;18.216;2023-05-18T10:32:42;12.21;74.95
74224;SHT31;62585;49.706;18.216;2023-05-18T10:35:09;12.00;75.46
74224;SHT31;62585;49.706;18.216;2023-05-18T10:37:37;12.04;75.06
74224;SHT31;62585;49.706;18.216;2023-05-18T10:40:09;12.13;76.10
74224;SHT31;62585;49.706;18.216;2023-05-18T10:42:36;12.08;74.44
74224;SHT31;62585;49.706;18.216;2023-05-18T10:45:02;12.01;75.30
74224;SHT31;62585;49.706;18.216;2023-05-18T10:47:29;12.01;75.69
74224;SHT31;62585;49.706;18.216;2023-05-18T10:49:58;11.82;74.29
74224;SHT31;62585;49.706;18.216;2023-05-18T10:52:26;11.90;75.67
74224;SHT31;62585;49.706;18.216;2023-05-18T10:54:58;11.86;75.41
74224;SHT31;62585;49.706;18.216;2023-05-18T10:57:53;11.42;75.58
74224;SHT31;62585;49.706;18.216;2023-05-18T11:00:21;11.43;77.71
74224;SHT31;62585;49.706;18.216;2023-05-18T11:02:48;11.45;76.08
74224;SHT31;62585;49.706;18.216;2023-05-18T11:05:22;11.40;76.05
74224;SHT31;62585;49.706;18.216;2023-05-18T11:07:49;11.43;70.80
74224;SHT31;62585;49.706;18.216;2023-05-18T11:10:14;11.48;71.26
74224;SHT31;62585;49.706;18.216;2023-05-18T11:12:40;11.32;65.63
74224;SHT31;62585;49.706;18.216;2023-05-18T11:15:06;11.46;68.88
74224;SHT31;62585;49.706;18.216;2023-05-18T11:17:32;11.36;68.93
74224;SHT31;62585;49.706;18.216;2023-05-18T11:22:42;11.29;68.49
74224;SHT31;62585;49.706;18.216;2023-05-18T11:25:09;11.17;67.65
74224;SHT31;62585;49.706;18.216;2023-05-18T11:27:57;11.28;70.78
74224;SHT31;62585;49.706;18.216;2023-05-18T11:33:07;11.17;69.64
74224;SHT31;62585;49.706;18.216;2023-05-18T11:35:33;11.11;69.71
74224;SHT31;62585;49.706;18.216;2023-05-18T11:38:07;11.12;68.80
74224;SHT31;62585;49.706;18.216;2023-05-18T11:40:46;11.10;71.08
74224;SHT31;62585;49.706;18.216;2023-05-18T11:43:23;11.10;72.38
74224;SHT31;62585;49.706;18.216;2023-05-18T11:45:56;11.07;72.00
74224;SHT31;62585;49.706;18.216;2023-05-18T11:48:26;11.15;72.60
74224;SHT31;62585;49.706;18.216;2023-05-18T11:50:54;11.19;71.89
74224;SHT31;62585;49.706;18.216;2023-05-18T11:53:25;11.12;71.71
74224;SHT31;62585;49.706;18.216;2023-05-18T11:55:52;11.31;73.75
74224;SHT31;62585;49.706;18.216;2023-05-18T11:58:24;11.38;73.62
74224;SHT31;62585;49.706;18.216;2023-05-18T12:00:50;11.32;73.62
74224;SHT31;62585;49.706;18.216;2023-05-18T12:03:22;11.36;74.73
74224;SHT31;62585;49.706;18.216;2023-05-18T12:05:49;11.32;75.48
74224;SHT31;62585;49.706;18.216;2023-05-18T12:08:19;11.40;76.66
74224;SHT31;62585;49.706;18.216;2023-05-18T12:10:47;11.49;77.35
74224;SHT31;62585;49.706;18.216;2023-05-18T12:13:13;11.51;77.85
74224;SHT31;62585;49.706;18.216;2023-05-18T12:15:39;11.35;76.45
74224;SHT31;62585;49.706;18.216;2023-05-18T12:18:05;11.22;76.31
74224;SHT31;62585;49.706;18.216;2023-05-18T12:20:31;11.17;76.29
74224;SHT31;62585;49.706;18.216;2023-05-18T12:22:57;11.24;77.07
74224;SHT31;62585;49.706;18.216;2023-05-18T12:25:26;11.07;77.83
74224;SHT31;62585;49.706;18.216;2023-05-18T12:27:53;11.01;78.22
74224;SHT31;62585;49.706;18.216;2023-05-18T12:30:21;11.10;78.76
74224;SHT31;62585;49.706;18.216;2023-05-18T12:32:56;11.06;77.48
74224;SHT31;62585;49.706;18.216;2023-05-18T12:35:26;11.00;77.99
74224;SHT31;62585;49.706;18.216;2023-05-18T12:37:52;10.98;78.08
74224;SHT31;62585;49.706;18.216;2023-05-18T12:40:26;10.80;78.21
74224;SHT31;62585;49.706;18.216;2023-05-18T12:42:52;10.87;78.23
74224;SHT31;62585;49.706;18.216;2023-05-18T12:45:22;10.79;78.50
74224;SHT31;62585;49.706;18.216;2023-05-18T12:47:48;10.76;78.86
74224;SHT31;62585;49.706;18.216;2023-05-18T12:50:22;10.77;79.83
74224;SHT31;62585;49.706;18.216;2023-05-18T12:52:48;10.93;80.23
74224;SHT31;62585;49.706;18.216;2023-05-18T12:55:18;10.94;79.99
74224;SHT31;62585;49.706;18.216;2023-05-18T13:00:34;10.57;81.96
74224;SHT31;62585;49.706;18.216;2023-05-18T13:03:08;10.61;82.14
74224;SHT31;62585;49.706;18.216;2023-05-18T13:05:34;10.64;82.18
74224;SHT31;62585;49.706;18.216;2023-05-18T13:08:00;10.61;82.42
74224;SHT31;62585;49.706;18.216;2023-05-18T13:10:29;10.64;82.11
74224;SHT31;62585;49.706;18.216;2023-05-18T13:12:56;10.80;82.35
74224;SHT31;62585;49.706;18.216;2023-05-18T13:15:36;10.93;81.10
74224;SHT31;62585;49.706;18.216;2023-05-18T13:18:03;10.88;81.01
74224;SHT31;62585;49.706;18.216;2023-05-18T13:20:43;10.85;79.59
74224;SHT31;62585;49.706;18.216;2023-05-18T13:23:11;10.91;79.50
74224;SHT31;62585;49.706;18.216;2023-05-18T13:25:38;11.01;78.95
74224;SHT31;62585;49.706;18.216;2023-05-18T13:28:04;10.98;77.77
74224;SHT31;62585;49.706;18.216;2023-05-18T13:30:30;10.98;78.22
74224;SHT31;62585;49.706;18.216;2023-05-18T13:32:57;10.83;76.85
74224;SHT31;62585;49.706;18.216;2023-05-18T13:35:23;10.79;78.41
74224;SHT31;62585;49.706;18.216;2023-05-18T13:37:49;10.79;79.97
74224;SHT31;62585;49.706;18.216;2023-05-18T13:40:15;10.66;79.14
74224;SHT31;62585;49.706;18.216;2023-05-18T13:42:42;10.71;80.24
74224;SHT31;62585;49.706;18.216;2023-05-18T13:45:09;10.93;80.54
74224;SHT31;62585;49.706;18.216;2023-05-18T13:47:36;11.32;80.75
74224;SHT31;62585;49.706;18.216;2023-05-18T13:50:02;11.67;79.86
74224;SHT31;62585;49.706;18.216;2023-05-18T13:52:28;11.86;76.55
74224;SHT31;62585;49.706;18.216;2023-05-18T13:54:53;11.84;75.88
74224;SHT31;62585;49.706;18.216;2023-05-18T13:57:19;11.67;75.60
74224;SHT31;62585;49.706;18.216;2023-05-18T13:59:47;11.58;77.42
74224;SHT31;62585;49.706;18.216;2023-05-18T14:02:13;11.35;76.21
74224;SHT31;62585;49.706;18.216;2023-05-18T14:04:39;11.32;78.13
74224;SHT31;62585;49.706;18.216;2023-05-18T14:07:05;11.63;79.21
74224;SHT31;62585;49.706;18.216;2023-05-18T14:09:31;11.75;76.78
74224;SHT31;62585;49.706;18.216;2023-05-18T14:11:57;11.77;77.45
74224;SHT31;62585;49.706;18.216;2023-05-18T14:14:24;11.66;76.97
74224;SHT31;62585;49.706;18.216;2023-05-18T14:16:50;11.58;77.57
74224;SHT31;62585;49.706;18.216;2023-05-18T14:19:16;11.24;78.91
74224;SHT31;62585;49.706;18.216;2023-05-18T14:21:41;11.21;80.71
74224;SHT31;62585;49.706;18.216;2023-05-18T14:24:07;11.35;79.16
74224;SHT31;62585;49.706;18.216;2023-05-18T14:26:35;11.31;79.92
74224;SHT31;62585;49.706;18.216;2023-05-18T14:29:02;11.25;79.91
74224;SHT31;62585;49.706;18.216;2023-05-18T14:31:28;11.25;80.81
74224;SHT31;62585;49.706;18.216;2023-05-18T14:33:53;11.25;80.23
74224;SHT31;62585;49.706;18.216;2023-05-18T14:36:19;11.24;79.55
74224;SHT31;62585;49.706;18.216;2023-05-18T14:38:45;11.10;79.65
74224;SHT31;62585;49.706;18.216;2023-05-18T14:41:11;11.01;79.71
74224;SHT31;62585;49.706;18.216;2023-05-18T14:43:37;10.76;80.16
74224;SHT31;62585;49.706;18.216;2023-05-18T14:46:03;10.70;80.85
74224;SHT31;62585;49.706;18.216;2023-05-18T14:48:28;10.80;80.35
74224;SHT31;62585;49.706;18.216;2023-05-18T14:50:54;10.80;78.61
74224;SHT31;62585;49.706;18.216;2023-05-18T14:53:20;10.76;79.20
74224;SHT31;62585;49.706;18.216;2023-05-18T14:55:46;10.77;79.75
74224;SHT31;62585;49.706;18.216;2023-05-18T14:58:12;10.81;79.47
74224;SHT31;62585;49.706;18.216;2023-05-18T15:00:40;10.94;79.07
74224;SHT31;62585;49.706;18.216;2023-05-18T15:03:06;10.91;79.21
74224;SHT31;62585;49.706;18.216;2023-05-18T15:05:32;10.81;78.44
74224;SHT31;62585;49.706;18.216;2023-05-18T15:07:58;10.69;79.48
74224;SHT31;62585;49.706;18.216;2023-05-18T15:10:24;10.66;79.62
74224;SHT31;62585;49.706;18.216;2023-05-18T15:12:49;10.56;79.67
74224;SHT31;62585;49.706;18.216;2023-05-18T15:15:15;10.53;80.15
74224;SHT31;62585;49.706;18.216;2023-05-18T15:17:41;10.57;81.48
74224;SHT31;62585;49.706;18.216;2023-05-18T15:20:08;10.53;81.09
74224;SHT31;62585;49.706;18.216;2023-05-18T15:22:34;10.55;80.73
74224;SHT31;62585;49.706;18.216;2023-05-18T15:25:01;10.56;81.28
74224;SHT31;62585;49.706;18.216;2023-05-18T15:27:29;10.56;80.83
74224;SHT31;62585;49.706;18.216;2023-05-18T15:29:56;10.48;81.26
74224;SHT31;62585;49.706;18.216;2023-05-18T15:32:21;10.35;81.71
74224;SHT31;62585;49.706;18.216;2023-05-18T15:34:47;10.35;81.91
74224;SHT31;62585;49.706;18.216;2023-05-18T15:37:13;10.32;82.08
74224;SHT31;62585;49.706;18.216;2023-05-18T15:39:38;10.32;82.53
74224;SHT31;62585;49.706;18.216;2023-05-18T15:42:04;10.25;82.97